createdAt,value
2023-04-28T00:00:59.307Z,5.90
2023-04-28T00:03:28.880Z,6.37
2023-04-28T00:05:58.275Z,6.13
2023-04-28T00:08:27.605Z,6.37
2023-04-28T00:10:56.660Z,6.23
2023-04-28T00:13:27.228Z,6.50
2023-04-28T00:15:56.537Z,6.87
2023-04-28T00:18:25.767Z,6.63
2023-04-28T00:20:55.120Z,5.80
2023-04-28T00:23:24.208Z,5.67
2023-04-28T00:25:53.585Z,5.63
2023-04-28T00:28:33.502Z,6.00
2023-04-28T00:31:12.397Z,6.30
2023-04-28T00:33:42.154Z,5.47
2023-04-28T00:36:12.098Z,5.90
2023-04-28T00:38:41.179Z,5.60
2023-04-28T00:41:11.995Z,5.97
2023-04-28T00:43:48.548Z,6.13
2023-04-28T00:46:24.079Z,6.63
2023-04-28T00:48:53.480Z,5.63
2023-04-28T00:51:22.577Z,5.90
2023-04-28T00:53:52.597Z,5.07
2023-04-28T00:56:22.469Z,6.40
2023-04-28T00:58:51.585Z,6.03
2023-04-28T01:01:22.557Z,6.20
2023-04-28T01:03:52.296Z,5.67
2023-04-28T01:06:22.114Z,5.53
2023-04-28T01:08:53.375Z,5.03
2023-04-28T01:11:22.458Z,6.47
2023-04-28T01:14:17.755Z,5.63
2023-04-28T01:16:48.550Z,5.47
2023-04-28T01:19:22.096Z,5.60
2023-04-28T01:21:51.926Z,6.00
2023-04-28T01:24:26.421Z,5.83
2023-04-28T01:26:56.928Z,4.60
2023-04-28T01:29:26.417Z,5.83
2023-04-28T01:31:55.861Z,5.50
2023-04-28T01:34:25.077Z,6.13
2023-04-28T01:36:54.192Z,5.77
2023-04-28T01:39:23.342Z,5.57
2023-04-28T01:41:53.869Z,5.60
2023-04-28T01:44:22.951Z,5.87
2023-04-28T01:46:51.990Z,6.17
2023-04-28T01:49:21.782Z,6.03
2023-04-28T01:51:50.946Z,6.23
2023-04-28T01:54:20.024Z,6.13
2023-04-28T01:56:49.190Z,5.83
2023-04-28T01:59:21.424Z,6.10
2023-04-28T02:01:50.604Z,6.27
2023-04-28T02:04:19.961Z,6.00
2023-04-28T02:06:49.202Z,5.47
2023-04-28T02:09:18.375Z,5.47
2023-04-28T02:11:47.528Z,6.47
2023-04-28T02:14:16.781Z,6.00
2023-04-28T02:16:47.611Z,6.83
2023-04-28T02:19:17.002Z,6.53
2023-04-28T02:21:46.075Z,6.07
2023-04-28T02:24:16.455Z,6.37
2023-04-28T02:26:45.827Z,6.60
2023-04-28T02:29:14.944Z,6.73
2023-04-28T02:31:44.030Z,6.00
2023-04-28T02:34:16.176Z,5.90
2023-04-28T02:36:45.520Z,6.20
2023-04-28T02:39:14.746Z,6.10
2023-04-28T02:41:43.814Z,6.90
2023-04-28T02:44:12.991Z,7.03
2023-04-28T02:46:42.380Z,5.87
2023-04-28T02:49:11.484Z,6.50
2023-04-28T02:51:41.941Z,6.77
2023-04-28T02:54:11.172Z,7.23
2023-04-28T02:56:40.920Z,5.30
2023-04-28T02:59:10.040Z,6.50
2023-04-28T03:01:39.212Z,6.70
2023-04-28T03:04:08.553Z,6.00
2023-04-28T03:06:38.207Z,7.50
2023-04-28T03:09:08.849Z,7.17
2023-04-28T03:11:38.203Z,6.47
2023-04-28T03:14:07.389Z,7.50
2023-04-28T03:16:36.473Z,7.33
2023-04-28T03:19:05.649Z,7.43
2023-04-28T03:21:34.828Z,6.50
2023-04-28T03:24:05.543Z,7.43
2023-04-28T03:26:37.249Z,7.27
2023-04-28T03:29:06.877Z,7.20
2023-04-28T03:31:36.152Z,7.30
2023-04-28T03:34:05.406Z,7.43
2023-04-28T03:36:34.602Z,8.20
2023-04-28T03:39:10.860Z,8.13
2023-04-28T03:41:41.362Z,7.30
2023-04-28T03:44:39.458Z,7.53
2023-04-28T03:47:09.867Z,6.63
2023-04-28T03:49:39.741Z,7.67
2023-04-28T03:52:08.848Z,7.80
2023-04-28T03:54:37.970Z,7.80
2023-04-28T03:57:08.524Z,8.60
2023-04-28T03:59:37.673Z,7.87
2023-04-28T04:02:06.793Z,8.10
2023-04-28T04:04:36.182Z,8.40
2023-04-28T04:07:06.294Z,8.47
2023-04-28T04:09:35.408Z,7.53
2023-04-28T04:12:04.668Z,8.50
2023-04-28T04:14:35.126Z,8.63
2023-04-28T04:17:04.365Z,7.97
2023-04-28T04:19:33.794Z,7.43
2023-04-28T04:22:02.878Z,7.30
2023-04-28T04:24:32.885Z,7.93
2023-04-28T04:27:02.251Z,7.23
2023-04-28T04:29:37.262Z,8.20
2023-04-28T04:32:11.315Z,7.60
2023-04-28T04:34:40.657Z,7.73
2023-04-28T04:37:10.298Z,9.00
2023-04-28T04:39:44.946Z,8.00
2023-04-28T04:42:24.792Z,8.07
2023-04-28T04:45:13.534Z,7.97
2023-04-28T04:47:44.593Z,7.30
2023-04-28T04:50:14.186Z,7.73
2023-04-28T04:52:43.320Z,7.40
2023-04-28T04:55:12.527Z,8.17
2023-04-28T04:57:43.664Z,7.30
2023-04-28T05:00:22.217Z,7.87
2023-04-28T05:02:52.041Z,7.87
2023-04-28T05:05:22.856Z,7.17
2023-04-28T05:08:07.293Z,7.13
2023-04-28T05:10:37.321Z,7.73
2023-04-28T05:13:06.975Z,7.47
2023-04-28T05:15:37.669Z,6.43
2023-04-28T05:18:29.874Z,8.23
2023-04-28T05:20:58.990Z,8.50
2023-04-28T05:23:28.919Z,8.07
2023-04-28T05:25:58.109Z,7.77
2023-04-28T05:28:27.660Z,7.37
2023-04-28T05:30:59.317Z,8.40
2023-04-28T05:33:28.540Z,7.83
2023-04-28T05:35:57.634Z,7.00
2023-04-28T05:38:26.793Z,6.30
2023-04-28T05:40:57.211Z,6.43
2023-04-28T05:43:26.339Z,6.77
2023-04-28T05:45:56.311Z,6.90
2023-04-28T05:48:27.077Z,6.27
2023-04-28T05:50:56.872Z,5.77
2023-04-28T05:53:26.701Z,5.70
2023-04-28T05:55:55.973Z,5.43
2023-04-28T05:58:25.129Z,4.40
2023-04-28T06:00:58.190Z,2.97
2023-04-28T06:03:28.832Z,3.30
2023-04-28T06:05:58.169Z,3.40
2023-04-28T06:08:27.724Z,3.23
2023-04-28T06:10:56.847Z,3.10
2023-04-28T06:13:26.050Z,2.93
2023-04-28T06:15:55.253Z,2.90
2023-04-28T06:18:24.611Z,2.67
2023-04-28T06:20:55.117Z,2.50
2023-04-28T06:23:24.196Z,1.83
2023-04-28T06:25:53.725Z,2.20
2023-04-28T06:28:22.854Z,2.13
2023-04-28T06:30:51.960Z,2.47
2023-04-28T06:33:21.255Z,2.42
2023-04-28T06:35:50.450Z,1.80
2023-04-28T06:38:21.518Z,1.58
2023-04-28T06:40:51.492Z,1.60
2023-04-28T06:43:22.028Z,1.70
2023-04-28T06:46:09.828Z,1.60
2023-04-28T06:48:39.402Z,1.80
2023-04-28T06:51:08.584Z,1.40
2023-04-28T06:53:39.212Z,1.30
2023-04-28T06:56:11.643Z,1.40
2023-04-28T06:58:40.975Z,1.50
2023-04-28T07:01:10.804Z,1.45
2023-04-28T07:03:39.954Z,1.67
2023-04-28T07:06:09.495Z,1.60
2023-04-28T07:08:41.186Z,2.03
2023-04-28T07:11:10.353Z,2.22
2023-04-28T07:13:39.441Z,2.60
2023-04-28T07:16:10.262Z,1.80
2023-04-28T07:18:39.331Z,1.65
2023-04-28T07:21:08.516Z,1.58
2023-04-28T07:23:40.914Z,1.48
2023-04-28T07:26:10.046Z,1.70
2023-04-28T07:28:39.185Z,1.70
2023-04-28T07:31:08.330Z,1.60
2023-04-28T07:33:37.400Z,1.75
2023-04-28T07:36:07.275Z,1.50
2023-04-28T07:38:36.740Z,1.65
2023-04-28T07:41:10.051Z,1.52
2023-04-28T07:43:40.912Z,1.45
2023-04-28T07:46:10.303Z,1.73
2023-04-28T07:48:39.622Z,1.75
2023-04-28T07:51:08.753Z,1.25
2023-04-28T07:53:37.867Z,1.70
2023-04-28T07:56:08.725Z,1.50
2023-04-28T07:58:38.175Z,1.48
2023-04-28T08:01:07.320Z,1.30
2023-04-28T08:03:36.629Z,1.80
2023-04-28T08:06:06.152Z,1.45
2023-04-28T08:08:35.320Z,1.65
2023-04-28T08:11:04.945Z,1.48
2023-04-28T08:13:36.105Z,1.60
2023-04-28T08:16:05.659Z,1.90
2023-04-28T08:18:34.787Z,1.52
2023-04-28T08:21:03.926Z,1.55
2023-04-28T08:23:33.000Z,1.52
2023-04-28T08:26:02.074Z,1.88
2023-04-28T08:28:31.314Z,1.88
2023-04-28T08:31:01.856Z,1.50
2023-04-28T08:33:30.978Z,1.75
2023-04-28T08:36:00.186Z,1.77
2023-04-28T08:38:29.402Z,1.73
2023-04-28T08:40:58.497Z,1.77
2023-04-28T08:43:28.769Z,1.58
2023-04-28T08:45:58.533Z,2.15
2023-04-28T08:48:29.888Z,1.70
2023-04-28T08:51:02.378Z,1.60
2023-04-28T08:53:36.291Z,1.83
2023-04-28T08:56:17.236Z,1.90
2023-04-28T08:58:46.569Z,1.52
2023-04-28T09:01:17.141Z,1.90
2023-04-28T09:03:49.764Z,1.80
2023-04-28T09:06:20.344Z,2.03
2023-04-28T09:08:50.439Z,1.98
2023-04-28T09:11:21.436Z,1.98
2023-04-28T09:13:51.262Z,1.70
2023-04-28T09:16:20.904Z,1.77
2023-04-28T09:18:59.837Z,2.00
2023-04-28T09:21:30.046Z,2.00
2023-04-28T09:24:00.412Z,1.60
2023-04-28T09:26:50.589Z,2.20
2023-04-28T09:29:21.100Z,2.22
2023-04-28T09:31:51.530Z,1.85
2023-04-28T09:34:22.986Z,2.10
2023-04-28T09:36:53.013Z,2.00
2023-04-28T09:39:32.573Z,1.90
2023-04-28T09:42:04.676Z,2.58
2023-04-28T09:44:33.768Z,2.63
2023-04-28T09:47:20.586Z,2.50
2023-04-28T09:49:57.201Z,1.85
2023-04-28T09:52:27.018Z,2.58
2023-04-28T09:54:57.510Z,2.25
2023-04-28T09:57:27.424Z,2.00
2023-04-28T09:59:58.331Z,2.05
2023-04-28T10:05:02.262Z,2.40
2023-04-28T10:07:35.590Z,2.78
2023-04-28T10:10:05.614Z,2.60
2023-04-28T10:12:35.301Z,2.47
2023-04-28T10:15:05.231Z,2.65
2023-04-28T10:17:35.089Z,2.53
2023-04-28T10:20:08.595Z,2.50
2023-04-28T10:22:52.515Z,2.65
2023-04-28T10:25:29.782Z,2.60
2023-04-28T10:28:00.606Z,2.28
2023-04-28T10:30:30.366Z,2.70
2023-04-28T10:33:26.734Z,2.55
2023-04-28T10:35:57.795Z,2.28
2023-04-28T10:38:26.899Z,2.60
2023-04-28T10:41:01.041Z,2.35
2023-04-28T10:43:39.468Z,2.30
2023-04-28T10:46:10.309Z,2.60
2023-04-28T10:49:06.880Z,2.22
2023-04-28T10:51:38.097Z,2.15
2023-04-28T10:54:21.235Z,2.40
2023-04-28T10:57:19.374Z,2.33
2023-04-28T10:59:49.234Z,2.60
2023-04-28T11:02:44.459Z,2.50
2023-04-28T11:05:23.352Z,2.47
2023-04-28T11:08:25.829Z,2.47
2023-04-28T11:11:22.783Z,2.70
2023-04-28T11:13:52.707Z,2.30
2023-04-28T11:16:23.994Z,2.00
2023-04-28T11:19:07.269Z,2.15
2023-04-28T11:21:36.381Z,2.60
2023-04-28T11:24:12.513Z,2.10
2023-04-28T11:26:43.664Z,2.35
2023-04-28T11:29:14.889Z,2.63
2023-04-28T11:31:51.374Z,2.10
2023-04-28T11:34:22.342Z,3.10
2023-04-28T11:36:53.419Z,2.65
2023-04-28T11:39:29.644Z,2.03
2023-04-28T11:42:02.270Z,2.20
2023-04-28T11:44:32.925Z,2.10
2023-04-28T11:47:03.959Z,2.03
2023-04-28T11:49:42.771Z,2.33
2023-04-28T11:52:12.769Z,2.20
2023-04-28T11:54:43.380Z,2.40
2023-04-28T11:57:21.058Z,2.25
2023-04-28T11:59:50.854Z,2.30
2023-04-28T12:02:29.120Z,2.20
2023-04-28T12:05:06.648Z,2.65
2023-04-28T12:07:44.239Z,2.35
2023-04-28T12:10:15.733Z,2.10
2023-04-28T12:12:51.739Z,2.60
2023-04-28T12:15:24.725Z,2.25
2023-04-28T12:17:53.904Z,2.10
2023-04-28T12:20:37.085Z,2.22
2023-04-28T12:23:07.352Z,2.45
2023-04-28T12:25:45.447Z,2.08
2023-04-28T12:28:16.158Z,2.00
2023-04-28T12:30:45.453Z,2.22
2023-04-28T12:33:25.133Z,2.30
2023-04-28T12:35:55.037Z,2.17
2023-04-28T12:38:27.111Z,2.20
2023-04-28T12:40:56.544Z,2.00
2023-04-28T12:43:29.028Z,2.30
2023-04-28T12:45:58.210Z,1.85
2023-04-28T12:48:28.081Z,2.70
2023-04-28T12:50:57.256Z,2.47
2023-04-28T12:53:26.355Z,2.63
2023-04-28T12:55:55.853Z,2.55
2023-04-28T12:58:26.712Z,3.17
2023-04-28T13:00:55.846Z,3.17
2023-04-28T13:03:25.075Z,2.70
2023-04-28T13:05:54.316Z,2.67
2023-04-28T13:08:23.367Z,3.00
2023-04-28T13:10:52.508Z,3.17
2023-04-28T13:13:21.544Z,2.80
2023-04-28T13:15:52.717Z,3.58
2023-04-28T13:18:23.448Z,3.22
2023-04-28T13:20:52.521Z,2.65
2023-04-28T13:23:21.708Z,3.28
2023-04-28T13:25:51.480Z,2.92
2023-04-28T13:28:21.053Z,2.88
2023-04-28T13:30:51.482Z,2.80
2023-04-28T13:33:20.516Z,2.53
2023-04-28T13:35:49.607Z,2.67
2023-04-28T13:38:19.505Z,3.05
2023-04-28T13:40:48.925Z,2.60
2023-04-28T13:43:18.086Z,2.83
2023-04-28T13:45:47.325Z,2.60
2023-04-28T13:48:17.791Z,2.80
2023-04-28T13:50:47.191Z,2.60
2023-04-28T13:53:17.269Z,2.88
2023-04-28T13:55:47.421Z,2.88
2023-04-28T13:58:17.355Z,2.35
2023-04-28T14:00:46.516Z,2.53
2023-04-28T14:03:17.392Z,2.65
2023-04-28T14:05:49.763Z,2.88
2023-04-28T14:08:20.752Z,2.42
2023-04-28T14:10:50.533Z,3.00
2023-04-28T14:13:20.498Z,3.03
2023-04-28T14:15:58.565Z,2.80
2023-04-28T14:18:29.888Z,2.47
2023-04-28T14:20:58.916Z,2.70
2023-04-28T14:23:28.629Z,2.40
2023-04-28T14:25:58.148Z,2.58
2023-04-28T14:28:27.507Z,2.85
2023-04-28T14:30:56.869Z,2.22
2023-04-28T14:33:26.006Z,2.83
2023-04-28T14:35:56.454Z,3.00
2023-04-28T14:38:25.586Z,2.45
2023-04-28T14:40:54.654Z,2.17
2023-04-28T14:43:24.099Z,2.40
2023-04-28T14:45:53.395Z,2.75
2023-04-28T14:48:22.958Z,2.72
2023-04-28T14:50:52.348Z,2.40
2023-04-28T14:53:23.606Z,2.40
2023-04-28T14:55:53.696Z,2.58
2023-04-28T14:58:23.991Z,2.40
2023-04-28T15:00:53.251Z,3.00
2023-04-28T15:03:22.601Z,2.88
2023-04-28T15:05:51.741Z,2.85
2023-04-28T15:08:22.320Z,2.70
2023-04-28T15:10:51.675Z,2.95
2023-04-28T15:13:22.049Z,2.80
2023-04-28T15:15:51.585Z,2.47
2023-04-28T15:18:21.048Z,3.03
2023-04-28T15:20:50.452Z,3.22
2023-04-28T15:23:20.222Z,2.75
2023-04-28T15:25:53.331Z,2.72
2023-04-28T15:28:23.576Z,3.22
2023-04-28T15:30:52.641Z,3.20
2023-04-28T15:33:21.841Z,3.55
2023-04-28T15:35:51.168Z,3.40
2023-04-28T15:38:20.284Z,3.10
2023-04-28T15:40:50.727Z,3.40
2023-04-28T15:43:20.145Z,3.50
2023-04-28T15:45:49.303Z,3.38
2023-04-28T15:48:18.501Z,4.25
2023-04-28T15:50:47.780Z,3.67
2023-04-28T15:53:17.366Z,3.80
2023-04-28T15:55:46.475Z,4.00
2023-04-28T15:58:17.015Z,3.47
2023-04-28T16:00:47.495Z,3.45
2023-04-28T16:03:16.853Z,3.55
2023-04-28T16:05:46.583Z,4.50
2023-04-28T16:08:15.840Z,4.10
2023-04-28T16:10:44.956Z,3.70
2023-04-28T16:13:14.522Z,3.97
2023-04-28T16:15:45.840Z,4.53
2023-04-28T16:18:15.538Z,4.47
2023-04-28T16:20:48.427Z,4.23
2023-04-28T16:23:18.675Z,4.87
2023-04-28T16:25:50.598Z,4.40
2023-04-28T16:28:19.686Z,4.20
2023-04-28T16:30:50.458Z,4.40
2023-04-28T16:33:19.574Z,4.63
2023-04-28T16:35:55.945Z,3.83
2023-04-28T16:38:25.120Z,4.57
2023-04-28T16:40:54.238Z,4.68
2023-04-28T16:43:23.332Z,4.00
2023-04-28T16:45:54.097Z,4.35
2023-04-28T16:48:23.642Z,5.23
2023-04-28T16:50:52.720Z,4.10
2023-04-28T16:53:21.784Z,4.30
2023-04-28T16:55:50.966Z,4.57
2023-04-28T16:58:20.058Z,4.60
2023-04-28T17:00:49.231Z,4.90
2023-04-28T17:03:19.797Z,5.00
2023-04-28T17:05:48.975Z,4.33
2023-04-28T17:08:18.438Z,5.10
2023-04-28T17:10:47.613Z,4.93
2023-04-28T17:13:16.641Z,5.13
2023-04-28T17:15:45.799Z,5.07
2023-04-28T17:18:14.962Z,4.77
2023-04-28T17:20:45.408Z,5.83
2023-04-28T17:23:15.106Z,5.63
2023-04-28T17:25:44.372Z,5.13
2023-04-28T17:28:13.537Z,5.60
2023-04-28T17:30:47.120Z,5.53
2023-04-28T17:33:17.389Z,5.70
2023-04-28T17:35:47.972Z,5.97
2023-04-28T17:38:17.236Z,5.77
2023-04-28T17:40:48.660Z,6.00
2023-04-28T17:43:20.218Z,5.03
2023-04-28T17:45:49.387Z,5.80
2023-04-28T17:48:18.561Z,6.00
2023-04-28T17:50:49.332Z,6.47
2023-04-28T17:53:19.071Z,7.37
2023-04-28T17:55:48.321Z,7.27
2023-04-28T17:58:18.138Z,7.20
2023-04-28T18:00:47.437Z,7.10
2023-04-28T18:03:16.781Z,8.13
2023-04-28T18:05:46.079Z,7.60
2023-04-28T18:08:16.652Z,7.03
2023-04-28T18:10:45.859Z,7.37
2023-04-28T18:13:15.312Z,7.47
2023-04-28T18:15:46.216Z,8.10
2023-04-28T18:18:15.717Z,7.57
2023-04-28T18:20:44.848Z,8.53
2023-04-28T18:23:15.516Z,7.83
2023-04-28T18:25:45.278Z,7.63
2023-04-28T18:28:14.433Z,7.47
2023-04-28T18:30:42.458Z,8.07
2023-04-28T18:33:11.890Z,8.00
2023-04-28T18:35:41.275Z,6.87
2023-04-28T18:38:10.570Z,8.27
2023-04-28T18:40:41.660Z,7.87
2023-04-28T18:43:11.423Z,7.60
2023-04-28T18:45:41.667Z,7.47
2023-04-28T18:48:13.525Z,8.13
2023-04-28T18:50:43.007Z,7.80
2023-04-28T18:53:12.744Z,7.20
2023-04-28T18:55:43.271Z,7.53
2023-04-28T18:58:15.111Z,7.50
2023-04-28T19:00:45.774Z,8.53
2023-04-28T19:03:16.201Z,8.27
2023-04-28T19:05:45.609Z,7.60
2023-04-28T19:08:14.814Z,7.80
2023-04-28T19:10:45.507Z,7.83
2023-04-28T19:13:14.950Z,7.57
2023-04-28T19:15:44.167Z,7.90
2023-04-28T19:18:13.512Z,8.37
2023-04-28T19:20:42.678Z,7.67
2023-04-28T19:23:11.937Z,7.40
2023-04-28T19:25:41.184Z,7.97
2023-04-28T19:28:11.956Z,7.47
2023-04-28T19:30:41.135Z,7.43
2023-04-28T19:33:10.374Z,7.13
2023-04-28T19:35:39.509Z,6.17
2023-04-28T19:38:09.510Z,6.27
2023-04-28T19:40:39.716Z,6.97
2023-04-28T19:43:10.316Z,6.80
2023-04-28T19:45:39.577Z,7.43
2023-04-28T19:48:08.885Z,6.43
2023-04-28T19:50:38.532Z,6.70
2023-04-28T19:53:08.039Z,6.97
2023-04-28T19:55:37.600Z,6.83
2023-04-28T19:58:06.994Z,6.63
2023-04-28T20:00:37.752Z,7.73
2023-04-28T20:03:07.014Z,7.07
2023-04-28T20:05:39.536Z,6.93
2023-04-28T20:08:08.696Z,7.20
2023-04-28T20:10:37.888Z,7.33
2023-04-28T20:13:07.204Z,7.03
2023-04-28T20:15:37.756Z,6.47
2023-04-28T20:18:06.973Z,7.73
2023-04-28T20:20:36.395Z,6.50
2023-04-28T20:23:05.797Z,7.50
2023-04-28T20:25:38.366Z,5.67
2023-04-28T20:28:07.706Z,6.37
2023-04-28T20:30:38.374Z,6.43
2023-04-28T20:33:07.561Z,7.10
2023-04-28T20:35:38.760Z,7.27
2023-04-28T20:38:08.061Z,7.23
2023-04-28T20:40:37.535Z,6.93
2023-04-28T20:43:06.668Z,7.50
2023-04-28T20:45:37.192Z,7.13
2023-04-28T20:48:07.212Z,7.20
2023-04-28T20:50:39.754Z,7.13
2023-04-28T20:53:09.088Z,7.67
2023-04-28T20:55:38.215Z,7.80
2023-04-28T20:58:07.658Z,7.60
2023-04-28T21:00:40.416Z,7.03
2023-04-28T21:03:15.470Z,6.90
2023-04-28T21:05:46.520Z,7.23
2023-04-28T21:08:16.398Z,7.03
2023-04-28T21:10:45.631Z,6.90
2023-04-28T21:13:14.784Z,6.43
2023-04-28T21:15:45.300Z,6.53
2023-04-28T21:18:14.643Z,6.80
2023-04-28T21:20:43.710Z,6.93
2023-04-28T21:23:13.009Z,6.43
2023-04-28T21:25:42.078Z,6.67
2023-04-28T21:28:11.189Z,7.23
2023-04-28T21:30:40.925Z,7.03
2023-04-28T21:33:11.409Z,5.43
2023-04-28T21:35:40.634Z,5.73
2023-04-28T21:38:10.856Z,6.83
2023-04-28T21:40:40.124Z,6.17
2023-04-28T21:43:09.199Z,7.00
2023-04-28T21:45:38.241Z,6.17
2023-04-28T21:48:08.108Z,6.37
2023-04-28T21:50:38.777Z,6.27
2023-04-28T21:53:07.898Z,6.00
2023-04-28T21:55:36.975Z,6.13
2023-04-28T21:58:06.431Z,5.33
2023-04-28T22:00:40.702Z,5.93
2023-04-28T22:03:10.478Z,5.63
2023-04-28T22:05:41.909Z,5.47
2023-04-28T22:08:11.500Z,5.90
2023-04-28T22:10:41.039Z,5.70
2023-04-28T22:13:10.443Z,5.60
2023-04-28T22:15:40.120Z,5.67
2023-04-28T22:18:09.384Z,6.67
2023-04-28T22:20:40.273Z,5.43
2023-04-28T22:23:09.380Z,5.63
2023-04-28T22:25:38.671Z,6.80
2023-04-28T22:28:07.896Z,5.67
2023-04-28T22:30:36.976Z,5.93
2023-04-28T22:33:06.161Z,5.13
2023-04-28T22:35:35.736Z,5.87
2023-04-28T22:38:06.571Z,6.63
2023-04-28T22:40:35.819Z,5.53
2023-04-28T22:43:04.957Z,6.83
2023-04-28T22:45:34.088Z,6.37
2023-04-28T22:48:03.226Z,5.60
2023-04-28T22:50:32.340Z,6.70
2023-04-28T22:53:01.407Z,5.97
2023-04-28T22:55:32.172Z,5.43
2023-04-28T22:58:01.230Z,6.07
2023-04-28T23:00:30.511Z,7.17
2023-04-28T23:02:59.663Z,6.30
2023-04-28T23:05:28.832Z,7.00
2023-04-28T23:07:57.873Z,6.80
2023-04-28T23:10:26.904Z,6.90
2023-04-28T23:12:57.366Z,6.90
2023-04-28T23:15:26.422Z,7.63
2023-04-28T23:17:55.512Z,6.93
2023-04-28T23:20:24.867Z,6.97
2023-04-28T23:22:56.644Z,6.73
2023-04-28T23:25:25.853Z,6.90
2023-04-28T23:27:56.294Z,6.50
2023-04-28T23:30:25.506Z,6.70
2023-04-28T23:32:54.698Z,6.50
2023-04-28T23:35:23.796Z,6.70
2023-04-28T23:37:53.325Z,7.03
2023-04-28T23:40:22.439Z,6.80
2023-04-28T23:42:51.548Z,6.83
2023-04-28T23:45:22.101Z,7.80
2023-04-28T23:47:51.301Z,6.33
2023-04-28T23:50:20.533Z,6.87
2023-04-28T23:52:49.730Z,7.40
2023-04-28T23:55:18.896Z,6.63
2023-04-28T23:57:48.023Z,6.07
